createdAt,value
2023-03-18T00:00:16.926Z,4.69
2023-03-18T00:03:05.152Z,4.67
2023-03-18T00:05:34.817Z,4.66
2023-03-18T00:08:04.906Z,4.65
2023-03-18T00:10:35.360Z,4.64
2023-03-18T00:13:04.656Z,4.64
2023-03-18T00:15:32.775Z,4.64
2023-03-18T00:18:00.952Z,4.65
2023-03-18T00:20:38.843Z,4.66
2023-03-18T00:23:08.846Z,4.68
2023-03-18T00:25:39.109Z,4.69
2023-03-18T00:28:08.147Z,4.70
2023-03-18T00:30:39.454Z,4.71
2023-03-18T00:33:10.747Z,4.73
2023-03-18T00:35:39.544Z,4.76
2023-03-18T00:38:10.065Z,4.79
2023-03-18T00:40:43.616Z,4.82
2023-03-18T00:43:13.014Z,4.85
2023-03-18T00:45:42.876Z,4.87
2023-03-18T00:48:11.928Z,4.89
2023-03-18T00:50:41.726Z,4.90
2023-03-18T00:53:09.906Z,4.92
2023-03-18T00:55:38.177Z,4.94
2023-03-18T00:58:06.670Z,4.95
2023-03-18T01:00:36.749Z,4.96
2023-03-18T01:03:06.685Z,4.96
2023-03-18T01:05:36.200Z,4.98
2023-03-18T01:08:05.218Z,4.98
2023-03-18T01:10:34.506Z,4.98
2023-03-18T01:13:03.077Z,4.98
2023-03-18T01:15:31.360Z,4.97
2023-03-18T01:17:59.939Z,4.96
2023-03-18T01:20:29.622Z,4.94
2023-03-18T01:22:58.842Z,4.93
2023-03-18T01:25:27.542Z,4.92
2023-03-18T01:27:56.129Z,4.92
2023-03-18T01:30:24.547Z,4.91
2023-03-18T01:32:54.221Z,4.93
2023-03-18T01:35:24.086Z,4.93
2023-03-18T01:37:53.599Z,4.95
2023-03-18T01:40:22.823Z,4.95
2023-03-18T01:43:19.020Z,4.98
2023-03-18T01:45:53.758Z,5.01
2023-03-18T01:48:25.533Z,5.02
2023-03-18T01:51:02.726Z,5.03
2023-03-18T01:53:46.574Z,5.03
2023-03-18T01:56:21.116Z,5.03
2023-03-18T01:59:00.026Z,5.02
2023-03-18T02:02:04.137Z,5.01
2023-03-18T02:04:41.332Z,4.99
2023-03-18T02:07:22.943Z,4.96
2023-03-18T02:09:52.584Z,4.94
2023-03-18T02:12:33.806Z,4.90
2023-03-18T02:15:06.866Z,4.89
2023-03-18T02:17:47.003Z,4.89
2023-03-18T02:20:21.360Z,4.90
2023-03-18T02:22:57.773Z,4.91
2023-03-18T02:25:48.221Z,4.92
2023-03-18T02:28:24.923Z,4.94
2023-03-18T02:30:57.778Z,4.95
2023-03-18T02:33:32.298Z,4.95
2023-03-18T02:36:08.462Z,4.96
2023-03-18T02:38:44.928Z,4.96
2023-03-18T02:41:24.684Z,4.96
2023-03-18T02:43:54.468Z,4.96
2023-03-18T02:46:31.085Z,4.96
2023-03-18T02:49:07.745Z,4.96
2023-03-18T02:51:37.435Z,4.95
2023-03-18T02:54:15.497Z,4.95
2023-03-18T02:56:44.747Z,4.95
2023-03-18T02:59:13.949Z,4.94
2023-03-18T03:01:44.898Z,4.95
2023-03-18T03:04:14.910Z,4.94
2023-03-18T03:06:45.135Z,4.94
2023-03-18T03:09:16.780Z,4.94
2023-03-18T03:11:47.182Z,4.93
2023-03-18T03:14:19.381Z,4.92
2023-03-18T03:16:48.776Z,4.92
2023-03-18T03:19:18.185Z,4.92
2023-03-18T03:21:46.358Z,4.91
2023-03-18T03:24:14.734Z,4.90
2023-03-18T03:26:42.914Z,4.85
2023-03-18T03:29:13.049Z,4.77
2023-03-18T03:31:41.727Z,4.70
2023-03-18T03:34:09.997Z,4.63
2023-03-18T03:36:38.274Z,4.55
2023-03-18T03:39:06.785Z,4.49
2023-03-18T03:41:36.490Z,4.44
2023-03-18T03:44:05.255Z,4.40
2023-03-18T03:46:33.462Z,4.38
2023-03-18T03:49:01.900Z,4.38
2023-03-18T03:51:30.587Z,4.38
2023-03-18T03:53:59.275Z,4.38
2023-03-18T03:56:28.579Z,4.39
2023-03-18T03:58:57.875Z,4.40
2023-03-18T04:01:30.473Z,4.41
2023-03-18T04:04:00.912Z,4.41
2023-03-18T04:06:30.280Z,4.40
2023-03-18T04:09:03.685Z,4.40
2023-03-18T04:11:32.979Z,4.39
2023-03-18T04:14:02.224Z,4.38
2023-03-18T04:16:30.516Z,4.36
2023-03-18T04:18:59.441Z,4.35
2023-03-18T04:21:27.644Z,4.32
2023-03-18T04:23:57.547Z,4.30
2023-03-18T04:26:26.431Z,4.28
2023-03-18T04:28:55.006Z,4.26
2023-03-18T04:31:24.052Z,4.25
2023-03-18T04:33:52.369Z,4.26
2023-03-18T04:36:21.056Z,4.26
2023-03-18T04:38:49.863Z,4.27
2023-03-18T04:41:18.645Z,4.28
2023-03-18T04:43:47.846Z,4.28
2023-03-18T04:46:16.899Z,4.29
2023-03-18T04:48:46.076Z,4.29
2023-03-18T04:51:15.633Z,4.29
2023-03-18T04:53:44.633Z,4.28
2023-03-18T04:56:12.879Z,4.27
2023-03-18T04:58:48.446Z,4.27
2023-03-18T05:01:21.325Z,4.26
2023-03-18T05:03:50.654Z,4.24
2023-03-18T05:06:25.561Z,4.22
2023-03-18T05:09:00.774Z,4.20
2023-03-18T05:11:33.375Z,4.17
2023-03-18T05:14:08.318Z,4.14
2023-03-18T05:16:43.406Z,4.11
2023-03-18T05:19:12.343Z,4.10
2023-03-18T05:21:46.454Z,4.08
2023-03-18T05:24:15.158Z,4.07
2023-03-18T05:26:43.744Z,4.08
2023-03-18T05:29:12.117Z,4.08
2023-03-18T05:31:47.665Z,4.05
2023-03-18T05:34:17.163Z,4.03
2023-03-18T05:36:45.853Z,4.03
2023-03-18T05:39:14.246Z,4.03
2023-03-18T05:41:42.508Z,4.05
2023-03-18T05:44:11.908Z,4.09
2023-03-18T05:46:40.991Z,4.14
2023-03-18T05:49:20.845Z,4.17
2023-03-18T05:52:10.398Z,4.21
2023-03-18T05:54:42.795Z,4.26
2023-03-18T05:57:13.941Z,4.30
2023-03-18T05:59:44.218Z,4.38
2023-03-18T06:02:13.188Z,4.47
2023-03-18T06:04:41.651Z,4.57
2023-03-18T06:07:10.528Z,4.68
2023-03-18T06:09:39.343Z,4.79
2023-03-18T06:12:08.516Z,4.89
2023-03-18T06:14:37.521Z,4.98
2023-03-18T06:17:07.539Z,5.08
2023-03-18T06:19:36.014Z,5.18
2023-03-18T06:22:05.079Z,5.27
2023-03-18T06:24:33.700Z,5.36
2023-03-18T06:27:02.578Z,5.47
2023-03-18T06:29:32.078Z,5.57
2023-03-18T06:32:08.403Z,5.68
2023-03-18T06:34:38.177Z,5.78
2023-03-18T06:37:07.971Z,5.90
2023-03-18T06:39:38.138Z,6.00
2023-03-18T06:42:10.624Z,6.12
2023-03-18T06:44:51.372Z,6.25
2023-03-18T06:47:30.271Z,6.38
2023-03-18T06:50:00.584Z,6.51
2023-03-18T06:52:32.758Z,6.65
2023-03-18T06:55:09.721Z,6.78
2023-03-18T06:57:41.816Z,6.93
2023-03-18T07:00:11.820Z,7.07
2023-03-18T07:02:41.332Z,7.21
2023-03-18T07:05:12.943Z,7.34
2023-03-18T07:07:42.290Z,7.48
2023-03-18T07:10:21.998Z,7.60
2023-03-18T07:12:52.822Z,7.73
2023-03-18T07:15:23.942Z,7.85
2023-03-18T07:17:54.958Z,7.98
2023-03-18T07:20:24.305Z,8.10
2023-03-18T07:22:53.555Z,8.23
2023-03-18T07:25:23.262Z,8.35
2023-03-18T07:27:52.459Z,8.46
2023-03-18T07:30:25.681Z,8.59
2023-03-18T07:32:57.444Z,8.72
2023-03-18T07:35:28.005Z,8.85
2023-03-18T07:37:57.845Z,8.99
2023-03-18T07:40:26.857Z,9.14
2023-03-18T07:42:56.144Z,9.28
2023-03-18T07:45:24.727Z,9.42
2023-03-18T07:47:53.312Z,9.59
2023-03-18T07:50:22.088Z,9.74
2023-03-18T07:52:50.369Z,9.87
2023-03-18T07:55:18.852Z,9.98
2023-03-18T07:57:47.637Z,10.09
2023-03-18T08:00:16.892Z,10.19
2023-03-18T08:02:45.463Z,10.30
2023-03-18T08:05:15.132Z,10.37
2023-03-18T08:07:45.144Z,10.44
2023-03-18T08:10:16.004Z,10.52
2023-03-18T08:12:52.665Z,10.63
2023-03-18T08:15:23.494Z,10.73
2023-03-18T08:17:56.252Z,10.82
2023-03-18T08:20:24.823Z,10.92
2023-03-18T08:22:54.136Z,11.03
2023-03-18T08:25:24.043Z,11.14
2023-03-18T08:27:53.742Z,11.22
2023-03-18T08:30:25.462Z,11.29
2023-03-18T08:32:54.627Z,11.39
2023-03-18T08:35:23.819Z,11.49
2023-03-18T08:37:52.492Z,11.62
2023-03-18T08:40:21.384Z,11.75
2023-03-18T08:42:49.870Z,11.85
2023-03-18T08:45:19.164Z,11.96
2023-03-18T08:47:47.541Z,12.07
2023-03-18T08:50:16.336Z,12.20
2023-03-18T08:52:46.704Z,12.32
2023-03-18T08:55:16.808Z,12.45
2023-03-18T08:57:45.526Z,12.58
2023-03-18T09:00:15.571Z,12.72
2023-03-18T09:02:44.191Z,12.83
2023-03-18T09:05:12.647Z,12.94
2023-03-18T09:07:42.873Z,13.05
2023-03-18T09:10:18.426Z,13.15
2023-03-18T09:12:48.078Z,13.22
2023-03-18T09:15:20.508Z,13.24
2023-03-18T09:18:03.755Z,13.27
2023-03-18T09:20:37.927Z,13.32
2023-03-18T09:23:07.457Z,13.40
2023-03-18T09:25:36.276Z,13.45
2023-03-18T09:28:05.440Z,13.54
2023-03-18T09:30:34.176Z,13.64
2023-03-18T09:33:02.875Z,13.75
2023-03-18T09:35:32.101Z,13.84
2023-03-18T09:38:00.911Z,13.94
2023-03-18T09:40:33.172Z,14.06
2023-03-18T09:43:23.143Z,14.16
2023-03-18T09:46:29.528Z,14.27
2023-03-18T09:49:10.494Z,14.36
2023-03-18T09:51:47.263Z,14.41
2023-03-18T09:54:39.714Z,14.48
2023-03-18T09:57:24.364Z,14.55
2023-03-18T10:00:05.759Z,14.58
2023-03-18T10:02:45.689Z,14.59
2023-03-18T10:05:47.380Z,14.62
2023-03-18T10:08:48.618Z,14.70
2023-03-18T10:11:24.365Z,14.77
2023-03-18T10:14:17.935Z,14.82
2023-03-18T10:16:55.427Z,14.86
2023-03-18T10:19:25.223Z,14.89
2023-03-18T10:22:38.253Z,14.92
2023-03-18T10:25:25.197Z,14.97
2023-03-18T10:28:12.304Z,14.98
2023-03-18T10:31:22.718Z,14.97
2023-03-18T10:34:00.362Z,15.02
2023-03-18T10:36:40.427Z,15.02
2023-03-18T10:39:20.113Z,15.02
2023-03-18T10:41:50.684Z,15.03
2023-03-18T10:44:37.106Z,15.07
2023-03-18T10:47:08.658Z,15.18
2023-03-18T10:49:43.202Z,15.27
2023-03-18T10:52:18.680Z,15.31
2023-03-18T10:54:50.868Z,15.38
2023-03-18T10:57:21.891Z,15.45
2023-03-18T10:59:52.330Z,15.50
2023-03-18T11:02:47.217Z,15.54
2023-03-18T11:05:36.641Z,15.57
2023-03-18T11:08:09.224Z,15.61
2023-03-18T11:10:47.288Z,15.63
2023-03-18T11:13:20.834Z,15.65
2023-03-18T11:16:00.034Z,15.71
2023-03-18T11:18:38.135Z,15.78
2023-03-18T11:21:19.012Z,15.86
2023-03-18T11:27:09.211Z,16.05
2023-03-18T11:29:46.672Z,16.09
2023-03-18T11:32:36.799Z,16.15
2023-03-18T11:35:23.754Z,16.23
2023-03-18T11:38:16.553Z,16.31
2023-03-18T11:40:50.709Z,16.38
2023-03-18T11:43:26.914Z,16.44
2023-03-18T11:46:21.323Z,16.49
2023-03-18T11:48:52.442Z,16.54
2023-03-18T11:51:36.313Z,16.57
2023-03-18T11:54:18.626Z,16.60
2023-03-18T11:56:52.841Z,16.62
2023-03-18T11:59:33.111Z,16.67
2023-03-18T12:02:26.348Z,16.74
2023-03-18T12:05:43.962Z,16.79
2023-03-18T12:08:48.925Z,16.82
2023-03-18T12:11:58.188Z,16.85
2023-03-18T12:14:28.590Z,16.86
2023-03-18T12:17:16.717Z,16.88
2023-03-18T12:20:25.970Z,16.86
2023-03-18T12:23:06.841Z,16.91
2023-03-18T12:26:18.051Z,16.96
2023-03-18T12:29:09.854Z,17.03
2023-03-18T12:31:57.556Z,17.02
2023-03-18T12:34:37.439Z,16.95
2023-03-18T12:37:32.326Z,16.92
2023-03-18T12:40:35.655Z,16.93
2023-03-18T12:43:04.878Z,16.89
2023-03-18T12:45:40.112Z,16.85
2023-03-18T12:48:18.692Z,16.84
2023-03-18T12:50:54.695Z,16.85
2023-03-18T12:53:33.783Z,16.90
2023-03-18T12:56:13.843Z,16.96
2023-03-18T12:58:50.709Z,17.02
2023-03-18T13:02:19.467Z,17.08
2023-03-18T13:04:56.875Z,17.13
2023-03-18T13:07:38.984Z,17.17
2023-03-18T13:10:22.576Z,17.17
2023-03-18T13:13:01.658Z,17.17
2023-03-18T13:15:39.182Z,17.16
2023-03-18T13:18:20.962Z,17.14
2023-03-18T13:20:53.080Z,17.14
2023-03-18T13:23:39.576Z,17.17
2023-03-18T13:26:22.412Z,17.19
2023-03-18T13:29:26.145Z,17.20
2023-03-18T13:32:07.130Z,17.18
2023-03-18T13:35:18.183Z,17.16
2023-03-18T13:37:50.657Z,17.17
2023-03-18T13:40:39.952Z,17.18
2023-03-18T13:43:15.996Z,17.21
2023-03-18T13:45:51.589Z,17.23
2023-03-18T13:48:32.166Z,17.24
2023-03-18T13:51:41.064Z,17.24
2023-03-18T13:54:18.820Z,17.25
2023-03-18T13:56:52.681Z,17.24
2023-03-18T13:59:33.355Z,17.22
2023-03-18T14:02:27.289Z,17.22
2023-03-18T14:05:00.395Z,17.19
2023-03-18T14:07:29.770Z,17.17
2023-03-18T14:10:17.229Z,17.15
2023-03-18T14:12:48.397Z,17.15
2023-03-18T14:15:36.749Z,17.14
2023-03-18T14:18:19.642Z,17.11
2023-03-18T14:20:53.850Z,17.07
2023-03-18T14:23:37.780Z,17.03
2023-03-18T14:26:20.071Z,16.97
2023-03-18T14:29:17.226Z,16.90
2023-03-18T14:31:45.351Z,16.83
2023-03-18T14:34:15.113Z,16.80
2023-03-18T14:36:52.912Z,16.76
2023-03-18T14:39:46.637Z,16.75
2023-03-18T14:42:34.934Z,16.73
2023-03-18T14:45:25.740Z,16.70
2023-03-18T14:47:57.194Z,16.65
2023-03-18T14:50:44.613Z,16.62
2023-03-18T14:53:17.265Z,16.56
2023-03-18T14:55:45.808Z,16.50
2023-03-18T14:58:24.505Z,16.45
2023-03-18T15:01:04.958Z,16.39
2023-03-18T15:03:34.594Z,16.32
2023-03-18T15:06:07.787Z,16.25
2023-03-18T15:08:47.763Z,16.20
2023-03-18T15:11:21.614Z,16.16
2023-03-18T15:13:57.312Z,16.13
2023-03-18T15:16:33.300Z,16.09
2023-03-18T15:19:04.124Z,16.06
2023-03-18T15:21:35.347Z,16.00
2023-03-18T15:24:07.822Z,15.95
2023-03-18T15:26:41.729Z,15.91
2023-03-18T15:29:29.045Z,15.87
2023-03-18T15:32:19.618Z,15.81
2023-03-18T15:34:58.438Z,15.76
2023-03-18T15:37:33.905Z,15.69
2023-03-18T15:40:31.512Z,15.62
2023-03-18T15:43:19.281Z,15.53
2023-03-18T15:45:54.779Z,15.47
2023-03-18T15:48:45.124Z,15.41
2023-03-18T15:51:48.306Z,15.34
2023-03-18T15:54:28.743Z,15.28
2023-03-18T15:56:58.910Z,15.21
2023-03-18T15:59:31.474Z,15.15
2023-03-18T16:02:00.880Z,15.08
2023-03-18T16:04:32.805Z,15.01
2023-03-18T16:07:01.221Z,14.95
2023-03-18T16:09:30.128Z,14.89
2023-03-18T16:12:02.545Z,14.84
2023-03-18T16:14:43.146Z,14.76
2023-03-18T16:17:19.568Z,14.68
2023-03-18T16:19:54.490Z,14.58
2023-03-18T16:22:23.536Z,14.50
2023-03-18T16:24:52.468Z,14.42
2023-03-18T16:27:36.081Z,14.33
2023-03-18T16:30:08.546Z,14.25
2023-03-18T16:32:36.983Z,14.15
2023-03-18T16:35:06.111Z,14.05
2023-03-18T16:37:34.921Z,13.94
2023-03-18T16:40:03.376Z,13.84
2023-03-18T16:42:31.954Z,13.73
2023-03-18T16:45:00.471Z,13.63
2023-03-18T16:47:29.146Z,13.54
2023-03-18T16:49:58.648Z,13.44
2023-03-18T16:52:27.015Z,13.36
2023-03-18T16:54:55.408Z,13.25
2023-03-18T16:57:24.293Z,13.12
2023-03-18T16:59:56.857Z,12.99
2023-03-18T17:02:35.583Z,12.87
2023-03-18T17:05:04.427Z,12.73
2023-03-18T17:07:37.184Z,12.60
2023-03-18T17:10:06.486Z,12.45
2023-03-18T17:12:36.175Z,12.32
2023-03-18T17:15:06.789Z,12.22
2023-03-18T17:17:36.412Z,12.12
2023-03-18T17:20:16.219Z,12.02
2023-03-18T17:22:45.353Z,11.92
2023-03-18T17:25:14.865Z,11.83
2023-03-18T17:27:54.406Z,11.73
2023-03-18T17:30:29.956Z,11.60
2023-03-18T17:32:59.004Z,11.47
2023-03-18T17:35:28.250Z,11.36
2023-03-18T17:37:58.158Z,11.26
2023-03-18T17:40:30.434Z,11.16
2023-03-18T17:42:59.198Z,11.07
2023-03-18T17:45:28.014Z,10.97
2023-03-18T17:48:22.598Z,10.90
2023-03-18T17:51:02.044Z,10.81
2023-03-18T17:53:45.794Z,10.74
2023-03-18T17:56:22.525Z,10.66
2023-03-18T17:58:53.699Z,10.58
2023-03-18T18:01:27.723Z,10.51
2023-03-18T18:03:59.075Z,10.44
2023-03-18T18:06:29.903Z,10.38
2023-03-18T18:09:00.646Z,10.32
2023-03-18T18:11:32.011Z,10.27
2023-03-18T18:14:29.330Z,10.22
2023-03-18T18:16:59.844Z,10.17
2023-03-18T18:19:29.993Z,10.13
2023-03-18T18:22:03.605Z,10.11
2023-03-18T18:24:34.679Z,10.10
2023-03-18T18:27:04.867Z,10.08
2023-03-18T18:29:35.409Z,10.05
2023-03-18T18:32:05.249Z,10.02
2023-03-18T18:34:34.811Z,9.99
2023-03-18T18:37:04.935Z,9.96
2023-03-18T18:39:35.182Z,9.93
2023-03-18T18:42:05.121Z,9.88
2023-03-18T18:44:34.944Z,9.85
2023-03-18T18:47:04.715Z,9.80
2023-03-18T18:49:35.107Z,9.77
2023-03-18T18:52:06.816Z,9.72
2023-03-18T18:54:36.741Z,9.68
2023-03-18T18:57:06.554Z,9.63
2023-03-18T18:59:36.156Z,9.58
2023-03-18T19:02:44.078Z,9.54
2023-03-18T19:05:14.515Z,9.47
2023-03-18T19:07:47.162Z,9.42
2023-03-18T19:10:19.590Z,9.36
2023-03-18T19:12:50.366Z,9.31
2023-03-18T19:15:21.864Z,9.25
2023-03-18T19:17:51.745Z,9.20
2023-03-18T19:20:30.176Z,9.14
2023-03-18T19:22:59.872Z,9.08
2023-03-18T19:25:29.287Z,9.04
2023-03-18T19:28:02.221Z,8.98
2023-03-18T19:30:32.841Z,8.93
2023-03-18T19:33:03.073Z,8.89
2023-03-18T19:35:32.326Z,8.85
2023-03-18T19:38:02.340Z,8.82
2023-03-18T19:40:34.331Z,8.78
2023-03-18T19:43:03.096Z,8.74
2023-03-18T19:45:33.399Z,8.70
2023-03-18T19:48:03.211Z,8.65
2023-03-18T19:50:33.352Z,8.60
2023-03-18T19:53:06.747Z,8.55
2023-03-18T19:55:36.357Z,8.50
2023-03-18T19:58:06.216Z,8.45
2023-03-18T20:00:35.299Z,8.40
2023-03-18T20:03:12.359Z,8.36
2023-03-18T20:05:44.906Z,8.32
2023-03-18T20:08:19.323Z,8.27
2023-03-18T20:10:48.818Z,8.24
2023-03-18T20:13:18.763Z,8.20
2023-03-18T20:15:47.672Z,8.17
2023-03-18T20:18:18.384Z,8.14
2023-03-18T20:20:52.132Z,8.09
2023-03-18T20:23:29.373Z,8.06
2023-03-18T20:26:25.366Z,8.02
2023-03-18T20:28:57.404Z,7.99
2023-03-18T20:31:30.564Z,7.95
2023-03-18T20:34:02.159Z,7.92
2023-03-18T20:36:34.087Z,7.89
2023-03-18T20:39:06.662Z,7.84
2023-03-18T20:41:38.722Z,7.80
2023-03-18T20:44:13.977Z,7.76
2023-03-18T20:46:48.375Z,7.70
2023-03-18T20:49:19.658Z,7.67
2023-03-18T20:51:51.674Z,7.65
2023-03-18T20:54:33.024Z,7.64
2023-03-18T20:57:04.100Z,7.63
2023-03-18T20:59:37.903Z,7.61
2023-03-18T21:02:30.992Z,7.59
2023-03-18T21:05:03.264Z,7.57
2023-03-18T21:07:34.796Z,7.56
2023-03-18T21:10:05.261Z,7.54
2023-03-18T21:12:35.968Z,7.52
2023-03-18T21:15:05.282Z,7.50
2023-03-18T21:17:34.155Z,7.45
2023-03-18T21:20:19.272Z,7.40
2023-03-18T21:22:51.622Z,7.34
2023-03-18T21:25:23.742Z,7.29
2023-03-18T21:27:53.814Z,7.25
2023-03-18T21:30:24.542Z,7.18
2023-03-18T21:32:53.842Z,7.12
2023-03-18T21:35:26.048Z,7.07
2023-03-18T21:37:55.624Z,7.02
2023-03-18T21:40:26.616Z,6.97
2023-03-18T21:42:56.160Z,6.93
2023-03-18T21:45:25.036Z,6.88
2023-03-18T21:47:53.954Z,6.81
2023-03-18T21:50:26.488Z,6.73
2023-03-18T21:52:55.625Z,6.65
2023-03-18T21:55:26.351Z,6.57
2023-03-18T21:57:55.228Z,6.48
2023-03-18T22:00:24.302Z,6.39
2023-03-18T22:02:53.292Z,6.31
2023-03-18T22:05:24.040Z,6.23
2023-03-18T22:07:52.954Z,6.15
2023-03-18T22:10:23.524Z,6.08
2023-03-18T22:12:52.196Z,6.03
2023-03-18T22:15:38.717Z,6.01
2023-03-18T22:18:08.020Z,5.98
2023-03-18T22:20:37.399Z,5.94
2023-03-18T22:23:18.019Z,5.90
2023-03-18T22:25:49.736Z,5.84
2023-03-18T22:28:18.690Z,5.79
2023-03-18T22:30:52.207Z,5.74
2023-03-18T22:33:33.576Z,5.68
2023-03-18T22:36:02.797Z,5.62
2023-03-18T22:38:32.261Z,5.58
2023-03-18T22:41:00.780Z,5.54
2023-03-18T22:43:35.418Z,5.52
2023-03-18T22:46:06.501Z,5.51
2023-03-18T22:48:35.458Z,5.51
2023-03-18T22:51:05.026Z,5.51
2023-03-18T22:53:37.645Z,5.51
2023-03-18T22:56:11.481Z,5.52
2023-03-18T22:58:40.080Z,5.52
2023-03-18T23:01:14.188Z,5.51
2023-03-18T23:03:45.036Z,5.51
2023-03-18T23:06:20.202Z,5.50
2023-03-18T23:08:48.640Z,5.49
2023-03-18T23:11:17.855Z,5.44
2023-03-18T23:13:50.843Z,5.40
2023-03-18T23:16:22.417Z,5.38
2023-03-18T23:18:51.303Z,5.36
2023-03-18T23:21:22.533Z,5.35
2023-03-18T23:23:52.759Z,5.33
2023-03-18T23:26:21.793Z,5.31
2023-03-18T23:28:55.525Z,5.26
2023-03-18T23:31:24.053Z,5.20
2023-03-18T23:33:52.307Z,5.14
2023-03-18T23:36:20.828Z,5.09
2023-03-18T23:38:49.360Z,5.02
2023-03-18T23:41:17.636Z,4.97
2023-03-18T23:43:47.563Z,4.93
2023-03-18T23:46:16.483Z,4.88
2023-03-18T23:48:44.936Z,4.84
2023-03-18T23:51:13.349Z,4.80
2023-03-18T23:53:42.500Z,4.77
2023-03-18T23:56:12.019Z,4.72
2023-03-18T23:58:40.697Z,4.68
